• Join FlightAware (Why Join?)
  • Login
  • US Flag 
06:54PM EDT


 

Airport Tracker/Info


-or-


 

Live Flight TrackerFlight Track Log ✈ DAL2172 ✈ 24-Jan-2014 ✈ KATL - KTPA

Flight Track Log - Related Links

Times and Time Zones

All times are in EST time to prevent confusion due to time zone crossing. See the DAL2172 flight status page for this flight to view local times or setup timezone preferences in your user account.

Time Position Orientation Groundspeed Altitude Reporting Facility
EST Latitude Longitude Course Direction KTS MPH feet Rate Location/Type
03:10PM 33.6333 -84.4833 194° South 213 245 3,200  Level Atlanta TRACON
03:11PM 33.6333 -84.5667 270° West 256 295 6,600 2,280 Climbing Atlanta TRACON
03:13PM 33.5692 -84.6994 240° Southwest 253 291 10,100 1,080 Climbing Atlanta Center
03:14PM 33.4689 -84.6911 176° South 299 344 10,000  Descending Atlanta Center
03:15PM 33.1052 -84.3673 194° South  Level FlightAware Approximate
03:15PM 33.3753 -84.6731 171° South 340 391 10,100  Level Atlanta Center
03:16PM 33.2814 -84.6178 154° Southeast 374 430 12,700 2,520 Climbing Atlanta Center
03:17PM 33.1858 -84.5600 153° Southeast 379 436 15,200 2,700 Climbing Atlanta Center
03:18PM 33.0772 -84.5297 167° South 389 448 18,200 3,000 Climbing Atlanta Center
03:19PM 32.9606 -84.5217 177° South 389 448 21,200 2,400 Climbing Atlanta Center
03:20PM 32.8497 -84.5161 178° South 389 448 23,000 1,500 Climbing Atlanta Center
03:21PM 32.7433 -84.5081 176° South 407 468 24,200 1,680 Climbing Atlanta Center
03:22PM 32.6203 -84.4975 176° South 432 497 26,400 1,920 Climbing Atlanta Center
03:23PM 32.4931 -84.4919 178° South 445 512 28,100 1,680 Climbing Atlanta Center
03:24PM 32.3678 -84.4839 177° South 450 518 29,800 1,440 Climbing Atlanta Center
03:25PM 32.2383 -84.4783 178° South 461 531 31,000 420 Climbing Atlanta Center
03:26PM 32.0358 -84.4636 176° South 460 529 31,000  Level Jacksonville Center
03:27PM 31.9064 -84.4564 177° South 460 529 31,000  Level Jacksonville Center
03:28PM 31.7769 -84.4494 177° South 460 529 31,000  Level Jacksonville Center
03:29PM 31.6497 -84.4400 176° South 460 529 31,000  Level Jacksonville Center
03:30PM 31.5058 -84.4303 177° South 460 529 31,000  Level Jacksonville Center
03:31PM 31.3806 -84.4256 178° South 460 529 31,000  Level Jacksonville Center
03:32PM 31.2511 -84.4164 177° South 460 529 31,000  Level Jacksonville Center
03:33PM 31.1239 -84.4094 177° South 460 529 31,000  Level Jacksonville Center
03:34PM 30.9989 -84.4000 176° South 460 529 31,000  Level Jacksonville Center
03:35PM 30.8694 -84.3931 177° South 460 529 31,000  Level Jacksonville Center
03:36PM 30.7422 -84.3864 177° South 460 529 31,000  Level Jacksonville Center
03:37PM 30.6150 -84.3769 176° South 460 529 31,000  Level Jacksonville Center
03:38PM 30.5006 -84.3417 165° South 469 540 31,000  Level Jacksonville Center
03:39PM 30.3781 -84.2603 150° Southeast 479 551 31,000  Level Jacksonville Center
03:40PM 30.2558 -84.1792 150° Southeast 498 573 31,000  Level Jacksonville Center
03:41PM 30.1356 -84.1006 151° Southeast 498 573 31,000  Level Jacksonville Center
03:42PM 30.0153 -84.0200 150° Southeast 504 580 31,000  Level Jacksonville Center
03:43PM 29.8928 -83.9419 151° Southeast 504 580 31,000 -300 Level Jacksonville Center
03:44PM 29.7681 -83.8617 151° Southeast 504 580 30,400 -840 Descending Jacksonville Center
03:45PM 29.6475 -83.7839 151° Southeast 499 574 29,400 -960 Descending Jacksonville Center
03:46PM 29.5228 -83.7039 151° Southeast 499 574 28,500 -900 Descending Jacksonville Center
03:47PM 29.3939 -83.6242 152° Southeast 505 581 27,700 -1,020 Descending Jacksonville Center
03:48PM 29.2711 -83.5425 150° Southeast 505 581 26,500 -900 Descending Jacksonville Center
03:49PM 29.1464 -83.4608 150° Southeast 511 588 26,000 -300 Descending Jacksonville Center
03:50PM 29.0214 -83.3842 152° Southeast 511 588 26,000 -660 Level Jacksonville Center
03:51PM 28.8986 -83.3053 151° Southeast 511 588 24,700 -1,500 Descending Jacksonville Center
03:52PM 28.7797 -83.2289 151° Southeast 500 575 23,000 -2,700 Descending Jacksonville Center
03:53PM 28.6525 -83.1506 152° Southeast 489 563 19,400 -2,820 Descending Jacksonville Center
03:54PM 28.5833 -83.1000 147° Southeast 469 540 17,900 -3,120 Descending Tampa TRACON
03:55PM 28.4667 -83.0333 153° Southeast 427 491 13,800 -3,000 Descending Tampa TRACON
03:56PM 28.3833 -82.9833 152° Southeast 399 459 12,000 -1,440 Descending Tampa TRACON
03:57PM 28.2667 -82.9000 148° Southeast 393 452 11,000 -540 Descending Tampa TRACON
03:58PM 28.1667 -82.8333 150° Southeast 395 455 11,000 -300 Level Tampa TRACON
03:59PM 28.1167 -82.7500 124° Southeast 338 389 10,400 -900 Descending Tampa TRACON
04:00PM 28.0500 -82.6667 132° Southeast 302 348 9,300 -1,740 Descending Tampa TRACON
04:01PM 28.0000 -82.6167 139° Southeast 280 322 7,000 -2,280 Descending Tampa TRACON
04:02PM 27.9167 -82.6167 180° South 261 300 4,800 -1,920 Descending Tampa TRACON
04:03PM 27.8500 -82.6167 180° South 250 288 3,000 -1,140 Descending Tampa TRACON
04:04PM 27.8500 -82.5500 90° East 206 237 2,500 -840 Descending Tampa TRACON
04:05PM 27.9000 -82.5500 360° North 186 214 1,500 -960 Descending Tampa TRACON
04:06PM 27.9333 -82.5500 360° North 139 160 700 -840 Descending Tampa TRACON